Time;durP1;ratioP1;P1;durP2;ratioP2;P2;SDS_P1;SDS_P2;PMS_P1;PMS_P2;Temp;Humidity;BMP_temperature;BMP_pressure;BME280_temperature;BME280_humidity;BME280_pressure;Samples;Min_cycle;Max_cycle;Signal;HPM_P1;HPM_P2
2022/11/04 03:12:51;;;;;;;16.10;8.90;;;;;;;6.71;75.69;99694.36;96619;1333;635187;-77
2022/11/04 03:15:24;;;;;;;17.60;8.30;;;;;;;6.71;75.46;99685.90;98767;1303;94570;-77
2022/11/04 03:17:57;;;;;;;16.40;9.30;;;;;;;6.74;75.42;99689.60;98750;1304;136805;-76
2022/11/04 03:20:27;;;;;;;22.40;9.70;;;;;;;6.74;75.62;99699.80;98855;1303;94747;-77
2022/11/04 03:22:58;;;;;;;20.90;9.70;;;;;;;6.73;75.46;99698.78;98843;1302;106348;-77
2022/11/04 03:25:29;;;;;;;16.60;9.30;;;;;;;6.72;75.40;99686.91;100224;1306;165903;-78
2022/11/04 03:28:03;;;;;;;19.00;9.60;;;;;;;6.69;75.72;99697.17;100532;1301;93869;-78
2022/11/04 03:30:39;;;;;;;20.90;9.90;;;;;;;6.68;75.52;99691.67;100561;1300;139014;-77
2022/11/04 03:33:15;;;;;;;18.00;8.80;;;;;;;6.70;75.51;99686.98;101136;1300;92714;-75
2022/11/04 03:35:42;;;;;;;21.60;9.60;;;;;;;6.71;75.33;99679.84;100487;1294;138990;-76
2022/11/04 03:38:08;;;;;;;20.90;9.70;;;;;;;6.75;75.30;99672.30;99504;1296;107648;-75
2022/11/04 03:40:35;;;;;;;21.50;9.70;;;;;;;6.78;75.27;99667.73;99565;1296;95519;-77
2022/11/04 03:43:08;;;;;;;18.00;9.90;;;;;;;6.80;75.23;99669.41;99351;1295;136491;-77
2022/11/04 03:45:36;;;;;;;28.00;10.40;;;;;;;6.81;75.20;99665.59;99513;1295;95129;-76
2022/11/04 03:48:02;;;;;;;19.80;9.60;;;;;;;6.79;75.16;99663.73;99447;1295;138452;-78
2022/11/04 03:50:32;;;;;;;21.00;9.00;;;;;;;6.77;75.15;99654.45;99446;1297;107429;-75
2022/11/04 03:53:00;;;;;;;22.00;10.20;;;;;;;6.77;75.16;99657.39;99652;1299;95027;-77
2022/11/04 03:55:41;;;;;;;19.10;9.30;;;;;;;6.77;75.26;99652.04;99434;1293;137349;-80
2022/11/04 03:58:18;;;;;;;20.10;9.60;;;;;;;6.78;75.15;99646.30;99651;1297;95750;-78
2022/11/04 04:00:47;;;;;;;;;;;;;;;6.81;75.24;99643.63;101130;1293;138486;-78
2022/11/04 04:03:18;;;;;;;22.00;8.80;;;;;;;6.83;75.10;99634.77;101094;1300;107856;-76
2022/11/04 04:05:52;;;;;;;18.30;9.30;;;;;;;6.85;75.15;99636.12;100182;1294;137463;-77
2022/11/04 04:08:28;;;;;;;24.00;10.50;;;;;;;6.86;75.17;99637.99;99625;1285;107015;-77
2022/11/04 04:11:05;;;;;;;21.90;9.40;;;;;;;6.86;75.22;99636.59;99626;1292;95117;-78
2022/11/04 04:13:42;;;;;;;17.70;9.70;;;;;;;6.85;75.15;99642.50;99534;1293;137679;-78
2022/11/04 04:16:16;;;;;;;20.50;8.60;;;;;;;6.86;75.29;99646.12;99423;1289;107203;-77
2022/11/04 04:18:47;;;;;;;18.60;8.30;;;;;;;6.85;75.40;99629.20;99454;1294;140171;-75
2022/11/04 04:21:24;;;;;;;21.20;8.80;;;;;;;6.86;75.32;99639.19;99601;1293;107951;-79
2022/11/04 04:29:27;;;;;;;21.10;9.20;;;;;;;6.87;75.58;99642.80;99558;1296;106924;-77
2022/11/04 04:31:56;;;;;;;17.20;9.20;;;;;;;6.86;75.43;99649.55;99487;1300;136388;-76
2022/11/04 04:34:26;;;;;;;15.80;8.50;;;;;;;6.85;75.53;99650.30;99576;1292;106766;-75
2022/11/04 04:36:58;;;;;;;15.80;8.30;;;;;;;6.84;75.53;99643.05;99463;1293;137513;-77
2022/11/04 04:45:02;;;;;;;18.10;8.60;;;;;;;6.89;75.62;99646.89;99583;1294;95102;-79
2022/11/04 04:47:34;;;;;;;14.90;8.60;;;;;;;6.92;75.46;99644.04;99520;1293;108726;-79
2022/11/04 04:50:02;;;;;;;17.70;8.70;;;;;;;6.95;75.45;99647.23;99572;1294;95130;-78
2022/11/04 04:52:32;;;;;;;19.80;9.40;;;;;;;6.97;75.15;99638.17;99594;1294;108440;-77
2022/11/04 04:54:59;;;;;;;19.30;9.20;;;;;;;6.98;75.42;99629.52;99499;1303;136660;-79
2022/11/04 04:57:26;;;;;;;22.00;8.70;;;;;;;6.97;75.22;99627.30;99638;1302;95123;-76
2022/11/04 04:59:53;;;;;;;15.40;8.40;;;;;;;6.93;75.37;99641.39;99471;1302;138206;-79
2022/11/04 05:02:20;;;;;;;20.00;9.00;;;;;;;6.93;75.27;99634.84;99568;1292;95344;-79
2022/11/04 05:04:48;;;;;;;16.60;7.80;;;;;;;6.94;75.39;99622.89;99568;1290;109430;-78
2022/11/04 05:07:15;;;;;;;14.40;7.80;;;;;;;6.95;75.28;99621.98;99366;1295;137680;-78
2022/11/04 05:09:41;;;;;;;20.70;8.90;;;;;;;6.97;75.35;99632.13;99532;1293;95156;-77
2022/11/04 05:12:09;;;;;;;17.20;8.40;;;;;;;6.97;75.39;99631.79;99462;1286;138200;-79
2022/11/04 05:14:37;;;;;;;18.90;7.70;;;;;;;6.97;75.32;99628.48;99585;1294;95101;-76
2022/11/04 05:17:04;;;;;;;18.20;8.70;;;;;;;6.99;75.28;99633.64;99567;1290;108322;-77
2022/11/04 05:19:31;;;;;;;19.60;9.10;;;;;;;7.01;75.34;99631.53;99410;1294;137513;-78
2022/11/04 05:21:58;;;;;;;17.00;9.00;;;;;;;7.02;75.41;99629.25;99497;1292;95327;-78
2022/11/04 05:24:25;;;;;;;15.70;8.70;;;;;;;7.04;75.27;99621.09;99368;1297;136543;-77
2022/11/04 05:26:52;;;;;;;17.20;9.00;;;;;;;7.04;75.23;99613.29;99623;1294;95147;-77
2022/11/04 05:29:19;;;;;;;17.40;8.30;;;;;;;7.03;75.08;99609.87;99497;1294;108372;-76
2022/11/04 05:31:46;;;;;;;15.00;8.30;;;;;;;7.00;75.27;99607.00;99381;1293;141134;-79
2022/11/04 05:34:14;;;;;;;17.30;8.00;;;;;;;7.01;75.30;99616.31;99507;1286;95685;-78
2022/11/04 05:36:41;;;;;;;16.90;8.60;;;;;;;7.03;75.43;99619.73;99392;1293;138782;-79
2022/11/04 05:39:11;;;;;;;16.10;8.70;;;;;;;7.04;75.25;99613.64;99578;1293;95090;-78
2022/11/04 05:41:38;;;;;;;18.80;9.10;;;;;;;7.04;75.18;99621.41;99607;1287;108474;-78
2022/11/04 05:44:08;;;;;;;19.10;8.20;;;;;;;7.04;75.21;99612.59;99521;1292;108348;-76
2022/11/04 05:46:35;;;;;;;14.60;8.60;;;;;;;7.03;75.23;99605.55;99554;1294;95014;-74
2022/11/04 05:49:02;;;;;;;18.00;8.80;;;;;;;7.02;75.34;99603.15;99420;1301;137263;-78
2022/11/04 05:51:29;;;;;;;15.80;9.10;;;;;;;7.01;75.44;99607.69;99477;1292;95305;-78
2022/11/04 05:53:56;;;;;;;18.00;8.20;;;;;;;7.00;75.40;99600.59;99397;1296;137217;-76
2022/11/04 05:56:23;;;;;;;17.80;8.40;;;;;;;7.00;75.37;99600.77;99539;1287;107095;-78
2022/11/04 05:58:50;;;;;;;17.10;7.80;;;;;;;7.02;75.44;99595.38;99575;1292;95211;-79
2022/11/04 06:01:27;;;;;;;18.90;8.70;;;;;;;7.06;75.38;99587.49;99545;1295;138292;-78
2022/11/04 06:03:56;;;;;;;18.30;8.40;;;;;;;7.08;75.22;99593.13;99568;1286;95127;-77
2022/11/04 06:06:25;;;;;;;15.80;8.20;;;;;;;7.11;75.15;99588.20;99383;1293;137304;-73
2022/11/04 06:08:52;;;;;;;14.90;8.00;;;;;;;7.12;75.22;99585.94;99521;1294;107730;-77
2022/11/04 06:11:20;;;;;;;16.90;8.30;;;;;;;7.11;75.13;99589.05;99563;1293;95136;-80
2022/11/04 06:13:47;;;;;;;19.30;8.60;;;;;;;7.12;75.22;99585.90;99374;1300;137482;-79
2022/11/04 06:16:14;;;;;;;16.90;7.80;;;;;;;7.14;75.27;99581.37;99455;1293;95021;-77
2022/11/04 06:18:41;;;;;;;12.60;8.00;;;;;;;7.18;75.03;99577.63;99448;1293;139048;-80
2022/11/04 06:21:23;;;;;;;19.80;8.50;;;;;;;7.21;74.97;99575.47;99580;1294;108109;-79
2022/11/04 06:23:51;;;;;;;21.80;8.50;;;;;;;7.24;74.92;99569.14;99484;1294;137180;-77
2022/11/04 06:26:18;;;;;;;14.10;8.00;;;;;;;7.25;74.65;99563.91;99589;1297;107607;-80
2022/11/04 06:28:51;;;;;;;20.00;9.00;;;;;;;7.27;74.77;99571.11;99589;1294;95129;-78
2022/11/04 06:31:19;;;;;;;17.70;8.50;;;;;;;7.27;74.67;99569.23;99428;1299;136846;-77
2022/11/04 06:33:46;;;;;;;20.00;8.80;;;;;;;7.28;74.55;99568.67;99509;1294;106902;-80
2022/11/04 06:36:15;;;;;;;15.40;8.20;;;;;;;7.31;74.37;99567.20;99352;1295;138065;-79
2022/11/04 06:38:43;;;;;;;20.80;8.30;;;;;;;7.34;74.43;99571.27;99378;1286;107080;-79
2022/11/04 06:41:13;;;;;;;15.60;8.00;;;;;;;7.38;74.40;99581.21;99422;1302;95137;-83
2022/11/04 06:43:40;;;;;;;17.30;7.60;;;;;;;7.40;74.31;99566.09;99357;1299;140649;-75
2022/11/04 06:46:23;;;;;;;14.40;7.70;;;;;;;7.43;74.29;99565.98;99299;1297;107168;-80
2022/11/04 06:48:50;;;;;;;18.30;8.50;;;;;;;7.48;74.32;99574.83;100998;1302;138929;-77
2022/11/04 06:51:17;;;;;;;17.70;7.80;;;;;;;7.50;74.09;99573.02;101259;1299;108767;-73
2022/11/04 06:53:44;;;;;;;17.20;8.70;;;;;;;7.53;74.10;99567.73;101221;1292;137278;-79
2022/11/04 06:56:11;;;;;;;15.70;8.20;;;;;;;7.55;73.90;99568.91;101249;1298;109375;-78
2022/11/04 06:58:38;;;;;;;16.90;8.60;;;;;;;7.57;73.90;99576.97;101298;1299;107746;-77
2022/11/04 07:01:05;;;;;;;13.70;8.10;;;;;;;7.59;73.70;99578.66;101097;1292;139422;-76
2022/11/04 07:03:40;;;;;;;16.50;7.90;;;;;;;7.61;73.76;99574.63;101231;1299;107226;-75
2022/11/04 07:06:11;;;;;;;17.80;7.80;;;;;;;7.64;73.66;99586.80;101123;1292;138062;-82
2022/11/04 07:08:39;;;;;;;14.30;7.40;;;;;;;7.64;73.32;99589.39;101239;1298;110043;-78
2022/11/04 07:11:07;;;;;;;16.80;8.30;;;;;;;7.66;73.40;99587.44;100263;1299;107179;-75
2022/11/04 07:13:34;;;;;;;17.70;7.40;;;;;;;7.68;73.26;99576.77;99516;1299;137791;-77
2022/11/04 07:16:03;;;;;;;17.40;8.50;;;;;;;7.71;73.36;99572.90;99673;1297;108273;-77
2022/11/04 07:18:30;;;;;;;18.30;8.30;;;;;;;7.70;73.27;99583.31;100922;1300;137655;-73
2022/11/04 07:20:59;;;;;;;17.80;8.20;;;;;;;7.70;73.24;99585.38;99605;1289;108549;-78
2022/11/04 07:23:25;;;;;;;18.20;8.40;;;;;;;7.72;73.17;99581.34;99636;1294;106829;-79
2022/11/04 07:25:54;;;;;;;14.90;7.90;;;;;;;7.75;73.11;99585.77;99532;1300;137603;-76
2022/11/04 07:28:21;;;;;;;15.60;7.90;;;;;;;7.79;73.09;99582.35;99667;1301;107633;-82
2022/11/04 07:30:47;;;;;;;14.20;7.50;;;;;;;7.84;73.08;99576.98;99461;1294;136968;-77
2022/11/04 07:33:14;;;;;;;18.20;8.60;;;;;;;7.90;72.93;99573.87;99788;1308;110083;-77
2022/11/04 07:35:42;;;;;;;16.80;8.20;;;;;;;7.95;72.82;99582.36;99553;1299;138192;-77
2022/11/04 07:38:09;;;;;;;18.70;8.60;;;;;;;8.02;72.66;99569.15;99657;1306;96974;-76
2022/11/04 07:40:38;;;;;;;16.60;9.20;;;;;;;8.07;72.54;99569.50;99673;1299;108110;-77
2022/11/04 07:43:05;;;;;;;16.30;9.00;;;;;;;8.11;72.39;99569.39;99690;1297;138467;-77
2022/11/04 07:45:36;;;;;;;14.90;8.20;;;;;;;8.15;72.38;99566.63;99675;1300;111142;-76
2022/11/04 07:48:03;;;;;;;18.30;8.90;;;;;;;8.21;72.26;99563.85;99530;1301;140450;-77
2022/11/04 07:50:30;;;;;;;20.20;8.50;;;;;;;8.26;72.14;99565.92;99615;1290;96494;-80
2022/11/04 07:52:58;;;;;;;19.20;9.00;;;;;;;8.32;71.96;99564.89;99631;1299;108238;-79
2022/11/04 07:55:25;;;;;;;16.50;8.90;;;;;;;8.35;71.79;99562.36;99570;1295;138701;-78
2022/11/04 07:57:54;;;;;;;23.90;9.60;;;;;;;8.39;71.88;99558.41;99616;1298;109436;-81
2022/11/04 08:00:21;;;;;;;16.10;9.00;;;;;;;8.39;71.79;99554.44;99521;1294;137489;-81
2022/11/04 08:02:49;;;;;;;18.60;9.10;;;;;;;8.39;71.81;99545.77;99693;1297;96525;-81
2022/11/04 08:05:16;;;;;;;16.00;8.90;;;;;;;8.38;71.78;99540.94;99622;1297;107659;-80
2022/11/04 08:07:44;;;;;;;15.50;8.90;;;;;;;8.38;71.71;99560.17;99479;1292;138216;-79
2022/11/04 08:10:11;;;;;;;14.70;9.00;;;;;;;8.34;71.64;99538.83;99593;1300;110530;-75
2022/11/04 08:12:38;;;;;;;17.10;8.50;;;;;;;8.32;71.76;99537.48;99525;1293;138650;-79
2022/11/04 08:15:07;;;;;;;17.90;9.30;;;;;;;8.32;71.80;99535.41;99597;1305;96399;-84
2022/11/04 08:17:34;;;;;;;17.70;9.70;;;;;;;8.32;71.91;99535.59;99534;1293;108410;-77
2022/11/04 08:20:01;;;;;;;16.30;9.00;;;;;;;8.30;71.79;99534.60;99750;1294;97055;-79
2022/11/04 08:22:28;;;;;;;13.80;8.50;;;;;;;8.29;71.87;99528.96;99746;1296;110884;-78
2022/11/04 08:24:58;;;;;;;15.90;9.40;;;;;;;8.30;72.06;99526.98;99587;1296;137728;-79
2022/11/04 08:27:25;;;;;;;15.70;8.90;;;;;;;8.32;72.05;99530.41;99743;1297;98715;-80
2022/11/04 08:29:52;;;;;;;17.50;9.10;;;;;;;8.33;72.04;99525.52;99679;1300;137688;-77
2022/11/04 08:32:19;;;;;;;17.70;9.50;;;;;;;8.35;72.08;99520.95;99633;1302;97128;-81
2022/11/04 08:34:47;;;;;;;18.60;9.20;;;;;;;8.38;71.91;99518.96;99785;1307;110921;-75
2022/11/04 08:37:16;;;;;;;18.00;9.60;;;;;;;8.38;71.85;99519.46;99591;1299;138027;-78
2022/11/04 08:39:44;;;;;;;19.90;9.90;;;;;;;8.37;71.62;99522.29;99643;1291;96513;-80
2022/11/04 08:42:11;;;;;;;15.90;9.80;;;;;;;8.35;71.56;99519.06;99626;1299;138718;-79
2022/11/04 08:44:39;;;;;;;18.20;9.70;;;;;;;8.32;71.71;99521.71;99658;1299;96378;-71
2022/11/04 08:47:06;;;;;;;17.50;9.70;;;;;;;8.35;72.05;99508.51;99784;1297;109619;-76
2022/11/04 08:49:37;;;;;;;19.90;9.30;;;;;;;8.36;71.66;99514.85;99655;1293;138326;-76
2022/11/04 08:52:05;;;;;;;17.10;9.50;;;;;;;8.34;71.53;99513.89;99738;1296;96992;-76
2022/11/04 08:54:32;;;;;;;17.60;9.60;;;;;;;8.32;71.60;99505.46;99576;1284;137677;-75
2022/11/04 08:57:00;;;;;;;20.00;9.70;;;;;;;8.33;71.76;99506.48;99737;1293;96573;-79
2022/11/04 08:59:27;;;;;;;21.20;10.30;;;;;;;8.35;71.62;99503.83;99679;1299;109717;-78
2022/11/04 09:01:54;;;;;;;17.30;9.20;;;;;;;8.38;71.71;99501.29;99594;1292;139295;-79
2022/11/04 09:04:21;;;;;;;19.80;9.80;;;;;;;8.42;71.59;99502.52;99730;1296;95181;-78
2022/11/04 09:06:49;;;;;;;16.80;9.50;;;;;;;8.44;71.61;99498.30;99670;1286;137587;-77
2022/11/04 09:09:18;;;;;;;16.70;9.80;;;;;;;8.50;71.51;99501.21;99730;1284;96835;-77
2022/11/04 09:11:46;;;;;;;16.90;10.60;;;;;;;8.56;71.47;99502.23;99721;1303;136965;-75
2022/11/04 09:14:14;;;;;;;16.80;9.60;;;;;;;8.60;71.33;99507.10;99701;1305;106669;-74
2022/11/04 09:16:41;;;;;;;20.60;9.70;;;;;;;8.63;71.20;99502.48;99746;1298;96379;-74
2022/11/04 09:19:09;;;;;;;18.40;10.10;;;;;;;8.65;71.12;99498.77;99617;1299;138520;-75
2022/11/04 09:21:36;;;;;;;18.90;10.30;;;;;;;8.68;71.31;99493.27;99736;1285;96501;-75
2022/11/04 09:24:04;;;;;;;18.30;9.50;;;;;;;8.72;71.11;99492.63;99762;1283;138699;-74
2022/11/04 09:26:31;;;;;;;20.20;9.80;;;;;;;8.75;71.02;99497.17;99851;1296;107797;-74
2022/11/04 09:28:59;;;;;;;18.10;9.60;;;;;;;8.79;70.97;99499.46;99795;1290;96458;-77
2022/11/04 09:31:28;;;;;;;17.90;9.90;;;;;;;8.83;71.03;99488.94;99714;1299;137640;-77
2022/11/04 09:33:55;;;;;;;19.70;9.90;;;;;;;8.88;71.10;99488.02;99815;1307;96565;-74
2022/11/04 09:36:23;;;;;;;16.80;9.60;;;;;;;8.95;71.29;99486.73;99771;1296;138645;-78
2022/11/04 09:38:50;;;;;;;16.10;9.50;;;;;;;9.01;71.26;99485.99;99745;1294;107469;-75
2022/11/04 09:41:38;;;;;;;21.50;8.60;;;;;;;9.08;71.12;99485.55;99805;1296;96477;-76
2022/11/04 09:44:09;;;;;;;;;;;;;;;9.13;70.65;99489.02;99739;1291;108937;-73
2022/11/04 09:46:39;;;;;;;17.20;9.40;;;;;;;9.17;70.65;99482.11;99768;1301;96461;-74
2022/11/04 09:49:09;;;;;;;17.10;9.30;;;;;;;9.21;70.46;99477.41;99666;1299;137164;-73
2022/11/04 09:51:37;;;;;;;19.50;9.60;;;;;;;9.29;70.48;99470.68;99835;1290;107013;-75
2022/11/04 09:54:24;;;;;;;20.00;9.60;;;;;;;9.37;70.10;99459.26;99674;1297;137309;-75
2022/11/04 09:56:55;;;;;;;18.60;9.10;;;;;;;9.43;69.78;99465.95;99783;1291;107977;-75
2022/11/04 09:59:28;;;;;;;16.50;9.30;;;;;;;9.45;69.32;99455.14;99790;1291;96384;-76
2022/11/04 10:02:13;;;;;;;22.30;9.00;;;;;;;9.50;69.56;99459.43;99646;1289;138300;-75
2022/11/04 10:05:01;;;;;;;17.70;9.30;;;;;;;9.59;69.31;99458.05;99777;1299;109332;-76
2022/11/04 10:07:44;;;;;;;15.40;9.50;;;;;;;9.64;69.15;99456.22;99688;1288;138080;-75
2022/11/04 10:10:21;;;;;;;19.30;9.60;;;;;;;9.75;68.92;99455.84;99795;1296;107465;-74
2022/11/04 10:13:01;;;;;;;16.80;8.80;;;;;;;9.85;68.91;99447.92;99677;1296;139104;-72
2022/11/04 10:15:46;;;;;;;16.50;9.50;;;;;;;9.97;68.77;99444.46;99721;1299;110597;-80
2022/11/04 10:18:27;;;;;;;16.70;9.10;;;;;;;10.12;68.60;99441.74;99774;1285;139199;-75
2022/11/04 10:21:05;;;;;;;20.50;10.00;;;;;;;10.27;67.79;99441.64;99800;1296;97180;-76
2022/11/04 10:23:38;;;;;;;17.70;9.40;;;;;;;10.36;67.95;99440.90;99813;1295;107400;-73
2022/11/04 10:26:15;;;;;;;20.20;9.30;;;;;;;10.47;67.25;99437.82;99703;1291;96475;-73
2022/11/04 10:28:44;;;;;;;24.50;8.90;;;;;;;10.58;67.05;99433.13;99697;1290;109798;-76
2022/11/04 10:31:15;;;;;;;22.60;9.80;;;;;;;10.85;66.76;99431.22;99708;1288;137281;-74
2022/11/04 10:33:47;;;;;;;19.00;9.20;;;;;;;11.04;66.06;99428.42;99659;1290;96387;-74
2022/11/04 10:36:16;;;;;;;17.90;10.20;;;;;;;11.22;65.74;99427.05;99618;1292;137471;-74
2022/11/04 10:38:46;;;;;;;21.70;9.60;;;;;;;11.44;65.36;99419.51;99814;1291;96462;-75
2022/11/04 10:41:26;;;;;;;19.10;9.40;;;;;;;11.65;64.94;99413.59;99797;1291;109643;-76
2022/11/04 10:43:58;;;;;;;17.70;9.80;;;;;;;11.94;64.68;99408.00;99812;1299;137257;-76
2022/11/04 10:46:38;;;;;;;18.90;9.40;;;;;;;12.19;64.66;99408.60;99902;1296;98138;-77
2022/11/04 10:49:21;;;;;;;16.20;9.00;;;;;;;12.33;63.46;99401.06;99596;1299;137099;-75
2022/11/04 10:51:48;;;;;;;17.40;9.70;;;;;;;12.49;62.68;99396.59;99784;1296;96477;-76
2022/11/04 10:54:15;;;;;;;24.20;10.10;;;;;;;12.67;62.46;99397.15;99688;1298;137387;-74
2022/11/04 10:56:47;;;;;;;16.20;9.30;;;;;;;12.83;62.27;99395.42;99799;1297;107300;-74
2022/11/04 10:59:26;;;;;;;15.10;9.00;;;;;;;13.07;62.58;99387.45;99820;1283;98025;-71
2022/11/04 11:01:54;;;;;;;17.80;9.40;;;;;;;13.32;61.50;99388.36;99635;1295;137085;-76
2022/11/04 11:04:30;;;;;;;16.90;10.40;;;;;;;13.43;60.22;99390.33;99702;1289;96468;-73
2022/11/04 11:06:59;;;;;;;15.90;8.80;;;;;;;13.28;59.64;99384.38;99647;1289;137356;-77
2022/11/04 11:09:29;;;;;;;19.10;9.20;;;;;;;13.10;60.26;99382.77;99727;1292;107540;-79
2022/11/04 11:11:59;;;;;;;20.30;9.70;;;;;;;13.01;60.81;99383.42;99739;1296;139970;-73
2022/11/04 11:14:38;;;;;;;15.90;9.20;;;;;;;12.98;60.78;99377.33;99764;1292;107988;-75
2022/11/04 11:17:23;;;;;;;19.00;10.00;;;;;;;13.06;60.49;99380.16;99850;1296;96480;-77
2022/11/04 11:19:59;;;;;;;18.80;8.70;;;;;;;13.18;60.82;99375.86;99769;1300;137887;-77
2022/11/04 11:22:39;;;;;;;18.20;8.60;;;;;;;13.39;61.09;99374.31;99920;1294;108179;-77
2022/11/04 11:25:23;;;;;;;16.60;9.70;;;;;;;13.57;60.60;99370.27;99790;1291;138739;-76
2022/11/04 11:27:52;;;;;;;19.20;9.10;;;;;;;13.63;59.03;99363.48;99921;1296;107539;-74
2022/11/04 11:30:25;;;;;;;16.90;8.70;;;;;;;13.58;58.47;99365.17;99764;1293;137542;-82
2022/11/04 11:32:56;;;;;;;17.20;8.70;;;;;;;13.48;58.47;99371.53;99927;1291;109964;-82
2022/11/04 11:35:27;;;;;;;16.00;8.70;;;;;;;13.43;58.10;99363.41;99871;1292;107837;-79
2022/11/04 11:37:56;;;;;;;16.90;8.90;;;;;;;13.37;58.32;99359.06;99690;1289;137102;-79
2022/11/04 11:40:30;;;;;;;16.70;8.50;;;;;;;13.33;59.05;99351.64;99854;1281;106817;-77
2022/11/04 11:42:58;;;;;;;15.10;8.70;;;;;;;13.31;59.60;99347.90;99715;1296;137253;-77
2022/11/04 11:45:26;;;;;;;15.80;8.90;;;;;;;13.35;60.04;99351.33;99853;1299;109010;-78
2022/11/04 11:47:55;;;;;;;15.80;8.60;;;;;;;13.47;59.72;99345.77;99743;1299;137899;-79
2022/11/04 11:50:28;;;;;;;19.90;8.70;;;;;;;13.52;59.12;99340.05;99911;1299;96487;-79
2022/11/04 11:53:14;;;;;;;15.90;9.30;;;;;;;13.60;59.25;99345.16;99765;1298;109166;-79
2022/11/04 11:55:47;;;;;;;16.60;8.70;;;;;;;13.62;58.66;99342.39;101258;1296;138108;-78
2022/11/04 11:58:21;;;;;;;15.90;8.90;;;;;;;13.62;57.77;99342.73;101297;1287;110824;-77
2022/11/04 12:01:16;;;;;;;17.10;8.40;;;;;;;13.52;56.95;99342.46;101262;1298;138075;-77
2022/11/04 12:03:51;;;;;;;13.00;8.10;;;;;;;13.41;57.53;99341.52;101101;1290;94924;-82
2022/11/04 12:06:48;;;;;;;18.40;8.40;;;;;;;13.38;57.65;99341.53;99788;1293;138502;-80
2022/11/04 12:09:41;;;;;;;17.30;8.30;;;;;;;13.38;58.25;99341.22;99781;1291;96464;-78
2022/11/04 12:12:18;;;;;;;18.90;9.40;;;;;;;13.42;57.74;99354.56;99710;1284;137235;-80
2022/11/04 12:15:02;;;;;;;13.60;8.50;;;;;;;13.40;57.38;99338.83;99856;1299;106273;-78
2022/11/04 12:17:41;;;;;;;15.40;8.30;;;;;;;13.40;57.86;99338.46;99740;1283;96477;-77
2022/11/04 12:20:22;;;;;;;14.30;8.10;;;;;;;13.44;57.28;99335.95;99697;1290;107994;-78
2022/11/04 12:22:58;;;;;;;17.90;8.90;;;;;;;13.44;57.74;99328.98;99818;1289;96476;-78
2022/11/04 12:25:35;;;;;;;13.40;8.80;;;;;;;13.40;57.69;99333.95;101212;1299;137521;-79
2022/11/04 12:28:10;;;;;;;18.70;8.90;;;;;;;13.38;57.88;99326.91;100765;1300;108903;-79
2022/11/04 12:30:58;;;;;;;15.30;8.60;;;;;;;13.36;57.93;99328.23;99802;1291;137479;-77
2022/11/04 12:33:34;;;;;;;15.20;8.00;;;;;;;13.32;58.13;99324.11;99726;1291;106709;-78
2022/11/04 12:36:20;;;;;;;15.50;9.10;;;;;;;13.31;58.00;99318.23;99660;1293;137464;-78
2022/11/04 12:39:02;;;;;;;16.80;7.90;;;;;;;13.23;57.41;99330.17;99752;1286;109932;-85
2022/11/04 12:41:37;;;;;;;14.20;8.30;;;;;;;13.11;57.81;99330.88;99695;1294;107535;-76
2022/11/04 12:44:32;;;;;;;13.40;8.50;;;;;;;12.98;57.69;99334.00;99837;1289;96783;-78
2022/11/04 12:47:12;;;;;;;14.30;8.30;;;;;;;12.85;57.83;99330.26;101111;1285;107670;-76
2022/11/04 12:50:03;;;;;;;16.00;8.40;;;;;;;12.74;58.18;99333.11;99745;1283;137432;-79
2022/11/04 12:52:45;;;;;;;12.80;8.50;;;;;;;12.69;58.66;99332.14;99799;1284;110021;-74
2022/11/04 12:55:31;;;;;;;17.10;8.50;;;;;;;12.74;58.95;99328.05;99667;1289;137510;-78
2022/11/04 12:58:11;;;;;;;16.70;8.10;;;;;;;12.79;58.59;99328.31;99785;1289;96617;-80
2022/11/04 13:00:41;;;;;;;16.10;9.10;;;;;;;12.72;58.50;99322.73;99534;1291;138808;-78
2022/11/04 13:03:16;;;;;;;14.40;8.30;;;;;;;12.68;58.90;99325.23;101252;1289;94863;-81
2022/11/04 13:05:49;;;;;;;15.20;8.50;;;;;;;12.63;58.77;99320.50;100375;1299;111416;-79
2022/11/04 13:08:22;;;;;;;19.40;9.20;;;;;;;12.54;58.53;99319.20;99691;1290;106026;-80
2022/11/04 13:10:56;;;;;;;17.90;9.10;;;;;;;12.47;59.07;99327.27;99750;1289;96807;-77
2022/11/04 13:13:28;;;;;;;17.00;8.80;;;;;;;12.41;59.11;99318.20;99704;1290;137100;-79
2022/11/04 13:15:58;;;;;;;17.00;8.40;;;;;;;12.38;59.21;99323.22;99700;1292;96576;-81
2022/11/04 13:18:30;;;;;;;17.90;8.80;;;;;;;12.36;59.20;99320.20;99612;1291;137951;-80
2022/11/04 13:21:03;;;;;;;17.00;9.40;;;;;;;12.31;58.91;99322.91;99674;1289;106707;-78
2022/11/04 13:23:37;;;;;;;16.40;8.50;;;;;;;12.27;59.19;99331.67;99754;1289;97970;-77
2022/11/04 13:26:07;;;;;;;16.80;8.30;;;;;;;12.21;58.54;99338.09;99662;1291;137079;-79
2022/11/04 13:28:39;;;;;;;20.70;8.50;;;;;;;12.17;59.10;99339.36;99754;1291;97118;-78
2022/11/04 13:31:12;;;;;;;19.80;8.50;;;;;;;12.15;59.14;99340.70;101213;1290;137125;-76
2022/11/04 13:33:48;;;;;;;12.40;8.60;;;;;;;12.12;59.32;99345.55;101298;1285;107406;-78
2022/11/04 13:36:28;;;;;;;18.30;8.80;;;;;;;12.06;59.07;99345.02;100995;1290;137553;-76
2022/11/04 13:38:58;;;;;;;18.60;8.10;;;;;;;11.99;59.17;99336.80;99869;1296;108295;-75
2022/11/04 13:41:38;;;;;;;17.00;8.40;;;;;;;11.95;59.24;99340.84;99820;1291;96559;-77
2022/11/04 13:44:13;;;;;;;13.10;8.10;;;;;;;11.94;59.17;99345.45;99658;1290;136871;-77
2022/11/04 13:46:47;;;;;;;12.40;8.00;;;;;;;11.91;58.81;99334.63;99791;1285;106215;-78
2022/11/04 13:49:29;;;;;;;16.40;8.00;;;;;;;11.91;59.02;99341.11;99810;1298;138315;-77
2022/11/04 13:52:09;;;;;;;16.00;7.30;;;;;;;11.89;58.73;99343.29;101369;1297;107993;-78
2022/11/04 13:54:40;;;;;;;16.10;8.30;;;;;;;11.87;58.75;99338.52;101263;1291;137492;-78
2022/11/04 13:57:12;;;;;;;16.40;8.00;;;;;;;11.84;58.65;99345.28;101450;1282;110992;-78
2022/11/04 13:59:39;;;;;;;14.20;7.90;;;;;;;11.81;58.59;99344.21;100768;1283;106828;-78
2022/11/04 14:02:26;;;;;;;20.70;8.90;;;;;;;11.78;58.55;99346.77;99703;1299;137416;-79
2022/11/04 14:04:54;;;;;;;18.90;8.30;;;;;;;11.74;58.56;99346.80;99880;1290;108706;-79
2022/11/04 14:08:00;;;;;;;11.30;7.00;;;;;;;11.72;58.70;99345.90;99750;1299;138681;-81
2022/11/04 14:10:46;;;;;;;16.10;8.00;;;;;;;11.69;58.63;99349.18;99823;1292;110522;-79
2022/11/04 14:13:45;;;;;;;18.00;8.00;;;;;;;11.66;58.76;99350.34;99745;1297;137430;-76
2022/11/04 14:16:33;;;;;;;18.10;8.40;;;;;;;11.63;58.67;99340.92;99788;1290;96471;-79
2022/11/04 14:19:54;;;;;;;18.00;7.70;;;;;;;11.60;58.91;99338.32;99685;1292;139447;-78
2022/11/04 14:22:22;;;;;;;15.60;8.30;;;;;;;11.55;59.08;99336.46;99797;1296;96333;-77
2022/11/04 14:24:56;;;;;;;17.10;8.40;;;;;;;11.52;58.95;99334.71;99796;1295;137231;-75
2022/11/04 14:27:28;;;;;;;12.90;8.10;;;;;;;11.48;59.17;99336.77;99795;1290;107829;-76
2022/11/04 14:29:55;;;;;;;18.70;8.30;;;;;;;11.45;59.27;99331.89;99623;1283;137517;-77
2022/11/04 14:32:30;;;;;;;15.90;8.20;;;;;;;11.40;59.32;99327.09;99766;1293;107404;-76
2022/11/04 14:35:04;;;;;;;20.20;8.40;;;;;;;11.36;59.51;99324.19;99687;1290;96491;-75
2022/11/04 14:37:34;;;;;;;12.10;8.10;;;;;;;11.29;59.56;99320.18;99661;1285;137068;-76
2022/11/04 14:40:04;;;;;;;15.50;8.70;;;;;;;11.21;59.74;99319.19;99679;1290;107298;-78
2022/11/04 14:42:52;;;;;;;16.30;8.50;;;;;;;11.14;60.00;99315.89;99676;1282;137507;-76
2022/11/04 14:45:24;;;;;;;13.70;8.00;;;;;;;11.07;60.15;99317.08;99723;1291;107558;-77
2022/11/04 14:47:55;;;;;;;16.10;7.90;;;;;;;11.02;60.44;99316.49;99801;1289;96629;-79
2022/11/04 14:50:26;;;;;;;19.50;8.80;;;;;;;10.98;60.58;99320.67;101380;1297;110392;-83
2022/11/04 14:52:57;;;;;;;17.40;8.50;;;;;;;10.94;60.63;99326.80;101432;1276;107762;-80
2022/11/04 14:55:26;;;;;;;17.90;9.10;;;;;;;10.88;60.78;99322.67;101181;1292;140449;-83
2022/11/04 14:57:55;;;;;;;16.20;9.00;;;;;;;10.86;60.94;99317.25;101397;1293;106537;-82
2022/11/04 15:00:29;;;;;;;19.80;9.00;;;;;;;10.83;60.97;99324.50;101238;1291;137717;-81
2022/11/04 15:03:04;;;;;;;17.70;8.80;;;;;;;10.80;61.09;99329.36;99972;1281;109810;-78
2022/11/04 15:05:35;;;;;;;17.70;9.50;;;;;;;10.77;61.29;99331.60;99873;1291;106845;-81
2022/11/04 15:08:02;;;;;;;15.00;8.60;;;;;;;10.74;61.33;99336.95;99844;1284;138806;-79
2022/11/04 15:10:30;;;;;;;17.10;9.10;;;;;;;10.69;61.45;99328.70;99867;1283;107346;-78